sensor_id;sensor_type;location;lat;lon;timestamp;pressure;altitude;pressure_sealevel;temperature;humidity
64853;BME280;56050;55.558;-4.644;2022-11-23T00:02:24;98646.34;;;8.01;67.14
64853;BME280;56050;55.558;-4.644;2022-11-23T00:04:49;98645.53;;;8.04;67.21
64853;BME280;56050;55.558;-4.644;2022-11-23T00:07:15;98642.44;;;8.06;67.14
64853;BME280;56050;55.558;-4.644;2022-11-23T00:09:40;98632.81;;;8.08;67.10
64853;BME280;56050;55.558;-4.644;2022-11-23T00:12:05;98626.25;;;8.09;67.14
64853;BME280;56050;55.558;-4.644;2022-11-23T00:14:31;98628.09;;;8.12;67.07
64853;BME280;56050;55.558;-4.644;2022-11-23T00:16:56;98621.56;;;8.13;67.02
64853;BME280;56050;55.558;-4.644;2022-11-23T00:19:22;98614.59;;;8.16;67.15
64853;BME280;56050;55.558;-4.644;2022-11-23T00:21:47;98606.13;;;8.17;67.03
64853;BME280;56050;55.558;-4.644;2022-11-23T00:24:13;98608.72;;;8.21;66.98
64853;BME280;56050;55.558;-4.644;2022-11-23T00:26:38;98602.19;;;8.22;67.01
64853;BME280;56050;55.558;-4.644;2022-11-23T00:29:03;98607.47;;;8.25;66.92
64853;BME280;56050;55.558;-4.644;2022-11-23T00:31:29;98592.88;;;8.26;66.88
64853;BME280;56050;55.558;-4.644;2022-11-23T00:33:54;98590.53;;;8.28;66.91
64853;BME280;56050;55.558;-4.644;2022-11-23T00:36:22;98583.25;;;8.29;66.89
64853;BME280;56050;55.558;-4.644;2022-11-23T00:38:48;98588.22;;;8.31;66.99
64853;BME280;56050;55.558;-4.644;2022-11-23T00:41:19;98580.94;;;8.31;67.01
64853;BME280;56050;55.558;-4.644;2022-11-23T00:43:45;98570.53;;;8.33;67.14
64853;BME280;56050;55.558;-4.644;2022-11-23T00:48:38;98558.94;;;8.36;67.19
64853;BME280;56050;55.558;-4.644;2022-11-23T00:51:06;98561.19;;;8.38;67.21
64853;BME280;56050;55.558;-4.644;2022-11-23T00:53:32;98551.22;;;8.38;67.31
64853;BME280;56050;55.558;-4.644;2022-11-23T00:55:58;98558.19;;;8.36;67.42
64853;BME280;56050;55.558;-4.644;2022-11-23T00:58:24;98560.88;;;8.36;67.47
64853;BME280;56050;55.558;-4.644;2022-11-23T01:00:49;98565.06;;;8.37;67.47
64853;BME280;56050;55.558;-4.644;2022-11-23T01:03:15;98562.72;;;8.39;67.67
64853;BME280;56050;55.558;-4.644;2022-11-23T01:05:41;98551.53;;;8.40;67.34
64853;BME280;56050;55.558;-4.644;2022-11-23T01:08:06;98539.97;;;8.43;67.42
64853;BME280;56050;55.558;-4.644;2022-11-23T01:10:32;98530.00;;;8.44;67.36
64853;BME280;56050;55.558;-4.644;2022-11-23T01:12:58;98525.38;;;8.44;67.46
64853;BME280;56050;55.558;-4.644;2022-11-23T01:15:24;98518.50;;;8.43;67.42
64853;BME280;56050;55.558;-4.644;2022-11-23T01:17:49;98517.75;;;8.43;67.45
64853;BME280;56050;55.558;-4.644;2022-11-23T01:20:15;98510.88;;;8.42;67.60
64853;BME280;56050;55.558;-4.644;2022-11-23T01:22:40;98517.75;;;8.43;67.52
64853;BME280;56050;55.558;-4.644;2022-11-23T01:25:06;98524.53;;;8.47;67.69
64853;BME280;56050;55.558;-4.644;2022-11-23T01:27:32;98513.38;;;8.49;67.69
64853;BME280;56050;55.558;-4.644;2022-11-23T01:29:58;98489.97;;;8.49;67.88
64853;BME280;56050;55.558;-4.644;2022-11-23T01:32:23;98497.94;;;8.53;67.87
64853;BME280;56050;55.558;-4.644;2022-11-23T01:34:48;98492.44;;;8.56;67.82
64853;BME280;56050;55.558;-4.644;2022-11-23T01:37:14;98481.31;;;8.58;67.73
64853;BME280;56050;55.558;-4.644;2022-11-23T01:39:39;98478.19;;;8.59;67.94
64853;BME280;56050;55.558;-4.644;2022-11-23T01:42:05;98480.78;;;8.63;67.97
64853;BME280;56050;55.558;-4.644;2022-11-23T01:44:35;98470.34;;;8.65;67.97
64853;BME280;56050;55.558;-4.644;2022-11-23T01:47:05;98466.41;;;8.69;68.02
64853;BME280;56050;55.558;-4.644;2022-11-23T01:49:42;98464.03;;;8.71;68.09
64853;BME280;56050;55.558;-4.644;2022-11-23T01:52:13;98442.13;;;8.73;68.09
64853;BME280;56050;55.558;-4.644;2022-11-23T01:54:45;98444.41;;;8.74;67.96
64853;BME280;56050;55.558;-4.644;2022-11-23T01:57:17;98440.84;;;8.77;68.04
64853;BME280;56050;55.558;-4.644;2022-11-23T01:59:44;98433.88;;;8.80;68.01
64853;BME280;56050;55.558;-4.644;2022-11-23T02:02:11;98444.50;;;8.83;67.88
64853;BME280;56050;55.558;-4.644;2022-11-23T02:04:39;98445.59;;;8.86;67.90
64853;BME280;56050;55.558;-4.644;2022-11-23T02:07:06;98447.06;;;8.87;67.88
64853;BME280;56050;55.558;-4.644;2022-11-23T02:09:33;98439.78;;;8.88;67.90
64853;BME280;56050;55.558;-4.644;2022-11-23T02:12:00;98435.16;;;8.88;67.84
64853;BME280;56050;55.558;-4.644;2022-11-23T02:14:25;98425.59;;;8.87;67.87
64853;BME280;56050;55.558;-4.644;2022-11-23T02:16:52;98419.47;;;8.86;67.82
64853;BME280;56050;55.558;-4.644;2022-11-23T02:19:35;98419.59;;;8.83;67.76
64853;BME280;56050;55.558;-4.644;2022-11-23T02:22:06;98420.34;;;8.83;67.95
64853;BME280;56050;55.558;-4.644;2022-11-23T02:24:40;98414.22;;;8.83;67.97
64853;BME280;56050;55.558;-4.644;2022-11-23T02:27:09;98412.31;;;8.83;67.95
64853;BME280;56050;55.558;-4.644;2022-11-23T02:29:35;98408.50;;;8.81;68.06
64853;BME280;56050;55.558;-4.644;2022-11-23T02:32:00;98405.81;;;8.81;68.04
64853;BME280;56050;55.558;-4.644;2022-11-23T02:34:26;98410.47;;;8.80;67.97
64853;BME280;56050;55.558;-4.644;2022-11-23T02:36:55;98392.53;;;8.77;68.21
64853;BME280;56050;55.558;-4.644;2022-11-23T02:39:28;98389.09;;;8.77;68.18
64853;BME280;56050;55.558;-4.644;2022-11-23T02:41:55;98388.13;;;8.71;68.18
64853;BME280;56050;55.558;-4.644;2022-11-23T02:46:54;98379.97;;;8.62;68.32
64853;BME280;56050;55.558;-4.644;2022-11-23T02:49:20;98371.59;;;8.60;68.31
64853;BME280;56050;55.558;-4.644;2022-11-23T02:51:45;98369.66;;;8.60;68.44
64853;BME280;56050;55.558;-4.644;2022-11-23T02:54:11;98362.69;;;8.63;68.50
64853;BME280;56050;55.558;-4.644;2022-11-23T02:56:36;98353.13;;;8.62;68.43
64853;BME280;56050;55.558;-4.644;2022-11-23T02:59:02;98335.22;;;8.59;68.50
64853;BME280;56050;55.558;-4.644;2022-11-23T03:01:28;98345.19;;;8.58;68.71
64853;BME280;56050;55.558;-4.644;2022-11-23T03:03:53;98323.28;;;8.60;68.52
64853;BME280;56050;55.558;-4.644;2022-11-23T03:06:18;98319.84;;;8.59;68.53
64853;BME280;56050;55.558;-4.644;2022-11-23T03:08:44;98314.47;;;8.59;68.65
64853;BME280;56050;55.558;-4.644;2022-11-23T03:11:09;98316.00;;;8.60;68.69
64853;BME280;56050;55.558;-4.644;2022-11-23T03:13:34;98320.19;;;8.61;68.77
64853;BME280;56050;55.558;-4.644;2022-11-23T03:16:00;98315.13;;;8.63;68.73
64853;BME280;56050;55.558;-4.644;2022-11-23T03:18:25;98311.25;;;8.64;68.67
64853;BME280;56050;55.558;-4.644;2022-11-23T03:20:51;98305.16;;;8.64;68.62
64853;BME280;56050;55.558;-4.644;2022-11-23T03:23:16;98299.78;;;8.64;68.77
64853;BME280;56050;55.558;-4.644;2022-11-23T03:25:42;98306.97;;;8.67;68.93
64853;BME280;56050;55.558;-4.644;2022-11-23T03:28:07;98294.94;;;8.71;68.90
64853;BME280;56050;55.558;-4.644;2022-11-23T03:30:32;98294.50;;;8.73;68.91
64853;BME280;56050;55.558;-4.644;2022-11-23T03:32:58;98283.75;;;8.73;68.93
64853;BME280;56050;55.558;-4.644;2022-11-23T03:35:23;98284.22;;;8.71;68.94
64853;BME280;56050;55.558;-4.644;2022-11-23T03:37:49;98285.81;;;8.69;68.98
64853;BME280;56050;55.558;-4.644;2022-11-23T03:40:14;98284.31;;;8.68;69.08
64853;BME280;56050;55.558;-4.644;2022-11-23T03:42:40;98278.94;;;8.68;69.05
64853;BME280;56050;55.558;-4.644;2022-11-23T03:45:06;98276.72;;;8.66;69.15
64853;BME280;56050;55.558;-4.644;2022-11-23T03:47:32;98275.19;;;8.65;69.34
64853;BME280;56050;55.558;-4.644;2022-11-23T03:49:57;98264.16;;;8.63;69.41
64853;BME280;56050;55.558;-4.644;2022-11-23T03:52:23;98252.97;;;8.65;69.29
64853;BME280;56050;55.558;-4.644;2022-11-23T03:54:48;98262.22;;;8.64;69.36
64853;BME280;56050;55.558;-4.644;2022-11-23T03:57:13;98239.13;;;8.66;69.28
64853;BME280;56050;55.558;-4.644;2022-11-23T03:59:39;98240.97;;;8.69;69.25
64853;BME280;56050;55.558;-4.644;2022-11-23T04:02:04;98229.47;;;8.69;69.22
64853;BME280;56050;55.558;-4.644;2022-11-23T04:04:31;98220.53;;;8.72;69.18
64853;BME280;56050;55.558;-4.644;2022-11-23T04:06:57;98208.94;;;8.75;69.25
64853;BME280;56050;55.558;-4.644;2022-11-23T04:09:22;98199.69;;;8.76;69.19
64853;BME280;56050;55.558;-4.644;2022-11-23T04:11:48;98190.00;;;8.78;69.22
64853;BME280;56050;55.558;-4.644;2022-11-23T04:14:13;98177.34;;;8.79;69.13
64853;BME280;56050;55.558;-4.644;2022-11-23T04:16:38;98171.22;;;8.78;69.08
64853;BME280;56050;55.558;-4.644;2022-11-23T04:19:04;98158.25;;;8.77;69.17
64853;BME280;56050;55.558;-4.644;2022-11-23T04:21:29;98155.88;;;8.79;69.11
64853;BME280;56050;55.558;-4.644;2022-11-23T04:23:55;98153.94;;;8.79;69.03
64853;BME280;56050;55.558;-4.644;2022-11-23T04:26:20;98140.53;;;8.79;69.19
64853;BME280;56050;55.558;-4.644;2022-11-23T04:28:45;98138.28;;;8.78;69.08
64853;BME280;56050;55.558;-4.644;2022-11-23T04:31:11;98134.41;;;8.79;69.09
64853;BME280;56050;55.558;-4.644;2022-11-23T04:33:36;98122.91;;;8.78;69.06
64853;BME280;56050;55.558;-4.644;2022-11-23T04:36:02;98129.03;;;8.79;68.94
64853;BME280;56050;55.558;-4.644;2022-11-23T04:38:27;98126.03;;;8.77;68.95
64853;BME280;56050;55.558;-4.644;2022-11-23T04:40:53;98111.56;;;8.74;68.93
64853;BME280;56050;55.558;-4.644;2022-11-23T04:43:18;98111.69;;;8.71;69.00
64853;BME280;56050;55.558;-4.644;2022-11-23T04:45:44;98102.56;;;8.68;69.00
64853;BME280;56050;55.558;-4.644;2022-11-23T04:48:09;98097.31;;;8.65;68.90
64853;BME280;56050;55.558;-4.644;2022-11-23T04:50:35;98090.13;;;8.62;69.02
64853;BME280;56050;55.558;-4.644;2022-11-23T04:53:02;98089.09;;;8.59;69.04
64853;BME280;56050;55.558;-4.644;2022-11-23T04:55:28;98080.31;;;8.59;69.07
64853;BME280;56050;55.558;-4.644;2022-11-23T04:57:53;98074.19;;;8.58;69.14
64853;BME280;56050;55.558;-4.644;2022-11-23T05:00:19;98083.41;;;8.57;69.20
64853;BME280;56050;55.558;-4.644;2022-11-23T05:02:44;98083.72;;;8.59;69.12
64853;BME280;56050;55.558;-4.644;2022-11-23T05:05:09;98074.50;;;8.60;68.90
64853;BME280;56050;55.558;-4.644;2022-11-23T05:07:35;98066.88;;;8.59;68.93
64853;BME280;56050;55.558;-4.644;2022-11-23T05:10:01;98069.56;;;8.59;69.03
64853;BME280;56050;55.558;-4.644;2022-11-23T05:12:26;98049.16;;;8.61;69.20
64853;BME280;56050;55.558;-4.644;2022-11-23T05:14:52;98045.16;;;8.66;69.23
64853;BME280;56050;55.558;-4.644;2022-11-23T05:17:17;98038.47;;;8.70;69.24
64853;BME280;56050;55.558;-4.644;2022-11-23T05:19:43;98037.16;;;8.75;69.25
64853;BME280;56050;55.558;-4.644;2022-11-23T05:22:09;98035.84;;;8.79;69.35
64853;BME280;56050;55.558;-4.644;2022-11-23T05:24:35;98029.47;;;8.86;69.21
64853;BME280;56050;55.558;-4.644;2022-11-23T05:27:00;98032.00;;;8.90;69.12
64853;BME280;56050;55.558;-4.644;2022-11-23T05:29:25;98037.56;;;8.95;68.98
64853;BME280;56050;55.558;-4.644;2022-11-23T05:31:51;98018.94;;;9.01;68.96
64853;BME280;56050;55.558;-4.644;2022-11-23T05:34:16;98028.81;;;9.04;69.02
64853;BME280;56050;55.558;-4.644;2022-11-23T05:36:41;98023.19;;;9.11;68.67
64853;BME280;56050;55.558;-4.644;2022-11-23T05:39:07;98029.59;;;9.13;68.57
64853;BME280;56050;55.558;-4.644;2022-11-23T05:41:32;98025.72;;;9.14;68.54
64853;BME280;56050;55.558;-4.644;2022-11-23T05:43:58;98015.72;;;9.15;68.37
64853;BME280;56050;55.558;-4.644;2022-11-23T05:46:23;98013.78;;;9.15;68.38
64853;BME280;56050;55.558;-4.644;2022-11-23T05:48:49;98016.47;;;9.15;68.30
64853;BME280;56050;55.558;-4.644;2022-11-23T05:51:14;98004.09;;;9.18;68.33
64853;BME280;56050;55.558;-4.644;2022-11-23T05:53:40;98007.81;;;9.20;68.23
64853;BME280;56050;55.558;-4.644;2022-11-23T05:56:05;97993.66;;;9.20;68.19
64853;BME280;56050;55.558;-4.644;2022-11-23T05:58:31;97987.09;;;9.21;68.05
64853;BME280;56050;55.558;-4.644;2022-11-23T06:00:58;97988.28;;;9.20;68.04
64853;BME280;56050;55.558;-4.644;2022-11-23T06:03:23;97975.31;;;9.18;68.11
64853;BME280;56050;55.558;-4.644;2022-11-23T06:05:49;97971.88;;;9.18;68.10
64853;BME280;56050;55.558;-4.644;2022-11-23T06:08:14;97966.94;;;9.16;68.16
64853;BME280;56050;55.558;-4.644;2022-11-23T06:10:39;97957.84;;;9.14;68.08
64853;BME280;56050;55.558;-4.644;2022-11-23T06:13:05;97962.16;;;9.11;68.23
64853;BME280;56050;55.558;-4.644;2022-11-23T06:15:30;97967.97;;;9.10;68.26
64853;BME280;56050;55.558;-4.644;2022-11-23T06:17:59;97960.78;;;9.07;68.32
64853;BME280;56050;55.558;-4.644;2022-11-23T06:20:27;97962.72;;;9.06;68.31
64853;BME280;56050;55.558;-4.644;2022-11-23T06:22:53;97957.06;;;9.04;68.41
64853;BME280;56050;55.558;-4.644;2022-11-23T06:25:18;97955.53;;;9.03;68.48
64853;BME280;56050;55.558;-4.644;2022-11-23T06:28:10;97951.38;;;9.02;68.38
64853;BME280;56050;55.558;-4.644;2022-11-23T06:30:36;97941.81;;;9.01;68.36
64853;BME280;56050;55.558;-4.644;2022-11-23T06:33:02;97945.09;;;8.96;68.48
64853;BME280;56050;55.558;-4.644;2022-11-23T06:35:28;97935.25;;;8.93;68.54
64853;BME280;56050;55.558;-4.644;2022-11-23T06:37:54;97929.56;;;8.91;68.50
64853;BME280;56050;55.558;-4.644;2022-11-23T06:40:19;97923.56;;;8.87;68.62
64853;BME280;56050;55.558;-4.644;2022-11-23T06:42:45;97914.03;;;8.86;68.70
64853;BME280;56050;55.558;-4.644;2022-11-23T06:45:11;97914.47;;;8.84;68.79
64853;BME280;56050;55.558;-4.644;2022-11-23T06:47:37;97906.13;;;8.82;68.79
64853;BME280;56050;55.558;-4.644;2022-11-23T06:50:03;97905.38;;;8.82;68.80
64853;BME280;56050;55.558;-4.644;2022-11-23T06:52:28;97886.59;;;8.82;68.84
64853;BME280;56050;55.558;-4.644;2022-11-23T06:54:54;97884.66;;;8.82;68.75
64853;BME280;56050;55.558;-4.644;2022-11-23T06:57:19;97885.84;;;8.81;68.93
64853;BME280;56050;55.558;-4.644;2022-11-23T06:59:45;97875.09;;;8.81;68.69
64853;BME280;56050;55.558;-4.644;2022-11-23T07:02:11;97874.66;;;8.83;68.83
64853;BME280;56050;55.558;-4.644;2022-11-23T07:04:37;97862.00;;;8.83;68.66
64853;BME280;56050;55.558;-4.644;2022-11-23T07:07:02;97856.63;;;8.83;68.75
64853;BME280;56050;55.558;-4.644;2022-11-23T07:09:27;97839.03;;;8.82;68.77
64853;BME280;56050;55.558;-4.644;2022-11-23T07:11:53;97838.28;;;8.82;68.87
64853;BME280;56050;55.558;-4.644;2022-11-23T07:14:18;97827.09;;;8.83;68.84
64853;BME280;56050;55.558;-4.644;2022-11-23T07:16:44;97817.09;;;8.84;69.00
64853;BME280;56050;55.558;-4.644;2022-11-23T07:19:09;97822.03;;;8.85;68.77
64853;BME280;56050;55.558;-4.644;2022-11-23T07:21:35;97809.78;;;8.84;68.87
64853;BME280;56050;55.558;-4.644;2022-11-23T07:24:00;97813.97;;;8.85;68.88
64853;BME280;56050;55.558;-4.644;2022-11-23T07:26:26;97815.44;;;8.86;69.00
64853;BME280;56050;55.558;-4.644;2022-11-23T07:28:51;97812.75;;;8.86;68.85
64853;BME280;56050;55.558;-4.644;2022-11-23T07:31:17;97800.56;;;8.85;68.98
64853;BME280;56050;55.558;-4.644;2022-11-23T07:33:43;97798.91;;;8.88;68.99
64853;BME280;56050;55.558;-4.644;2022-11-23T07:36:09;97806.50;;;8.90;68.98
64853;BME280;56050;55.558;-4.644;2022-11-23T07:38:34;97802.66;;;8.91;68.93
64853;BME280;56050;55.558;-4.644;2022-11-23T07:41:00;97800.56;;;8.95;68.71
64853;BME280;56050;55.558;-4.644;2022-11-23T07:43:27;97805.94;;;8.95;68.62
64853;BME280;56050;55.558;-4.644;2022-11-23T07:45:54;97796.97;;;8.98;68.56
64853;BME280;56050;55.558;-4.644;2022-11-23T07:48:20;97794.16;;;9.01;68.40
64853;BME280;56050;55.558;-4.644;2022-11-23T07:50:46;97797.44;;;9.05;68.26
64853;BME280;56050;55.558;-4.644;2022-11-23T07:53:11;97795.34;;;9.09;68.10
64853;BME280;56050;55.558;-4.644;2022-11-23T07:55:37;97783.28;;;9.14;67.71
64853;BME280;56050;55.558;-4.644;2022-11-23T07:58:02;97794.31;;;9.16;67.66
64853;BME280;56050;55.558;-4.644;2022-11-23T08:00:28;97788.47;;;9.17;67.55
64853;BME280;56050;55.558;-4.644;2022-11-23T08:02:54;97788.81;;;9.19;67.47
64853;BME280;56050;55.558;-4.644;2022-11-23T08:05:20;97789.84;;;9.22;67.06
64853;BME280;56050;55.558;-4.644;2022-11-23T08:07:46;97779.38;;;9.24;66.85
64853;BME280;56050;55.558;-4.644;2022-11-23T08:10:12;97770.88;;;9.25;66.67
64853;BME280;56050;55.558;-4.644;2022-11-23T08:12:38;97774.31;;;9.26;66.57
64853;BME280;56050;55.558;-4.644;2022-11-23T08:15:04;97763.13;;;9.27;66.29
64853;BME280;56050;55.558;-4.644;2022-11-23T08:17:30;97771.19;;;9.27;66.41
64853;BME280;56050;55.558;-4.644;2022-11-23T08:19:55;97764.31;;;9.26;66.41
64853;BME280;56050;55.558;-4.644;2022-11-23T08:22:20;97747.44;;;9.26;66.41
64853;BME280;56050;55.558;-4.644;2022-11-23T08:24:46;97745.50;;;9.26;66.38
64853;BME280;56050;55.558;-4.644;2022-11-23T08:27:12;97746.69;;;9.25;66.33
64853;BME280;56050;55.558;-4.644;2022-11-23T08:29:37;97751.63;;;9.27;66.40
64853;BME280;56050;55.558;-4.644;2022-11-23T08:32:03;97746.69;;;9.25;66.46
64853;BME280;56050;55.558;-4.644;2022-11-23T08:34:28;97744.75;;;9.26;66.42
64853;BME280;56050;55.558;-4.644;2022-11-23T08:36:54;97735.22;;;9.25;66.31
64853;BME280;56050;55.558;-4.644;2022-11-23T08:39:19;97739.84;;;9.24;66.32
64853;BME280;56050;55.558;-4.644;2022-11-23T08:41:45;97732.22;;;9.23;66.42
64853;BME280;56050;55.558;-4.644;2022-11-23T08:44:10;97723.88;;;9.21;66.47
64853;BME280;56050;55.558;-4.644;2022-11-23T08:46:37;97737.03;;;9.19;66.61
64853;BME280;56050;55.558;-4.644;2022-11-23T08:49:03;97722.09;;;9.18;66.63
64853;BME280;56050;55.558;-4.644;2022-11-23T08:51:29;97713.75;;;9.16;66.65
64853;BME280;56050;55.558;-4.644;2022-11-23T08:53:54;97729.41;;;9.17;66.63
64853;BME280;56050;55.558;-4.644;2022-11-23T08:56:20;97733.31;;;9.16;66.79
64853;BME280;56050;55.558;-4.644;2022-11-23T08:58:45;97731.38;;;9.17;66.77
64853;BME280;56050;55.558;-4.644;2022-11-23T09:01:12;97731.38;;;9.17;66.97
64853;BME280;56050;55.558;-4.644;2022-11-23T09:03:39;97728.97;;;9.19;66.76
64853;BME280;56050;55.558;-4.644;2022-11-23T09:06:05;97732.41;;;9.19;66.85
64853;BME280;56050;55.558;-4.644;2022-11-23T09:08:31;97727.75;;;9.20;66.76
64853;BME280;56050;55.558;-4.644;2022-11-23T09:11:03;97711.22;;;9.21;66.92
64853;BME280;56050;55.558;-4.644;2022-11-23T09:13:29;97707.31;;;9.22;66.91
64853;BME280;56050;55.558;-4.644;2022-11-23T09:15:59;97704.34;;;9.20;67.01
64853;BME280;56050;55.558;-4.644;2022-11-23T09:18:25;97688.50;;;9.22;66.97
64853;BME280;56050;55.558;-4.644;2022-11-23T09:20:52;97696.88;;;9.24;67.00
64853;BME280;56050;55.558;-4.644;2022-11-23T09:23:17;97697.16;;;9.26;67.03
64853;BME280;56050;55.558;-4.644;2022-11-23T09:25:42;97672.84;;;9.30;67.02
64853;BME280;56050;55.558;-4.644;2022-11-23T09:28:12;97686.41;;;9.35;66.96
64853;BME280;56050;55.558;-4.644;2022-11-23T09:30:39;97690.88;;;9.38;67.02
64853;BME280;56050;55.558;-4.644;2022-11-23T09:33:05;97697.59;;;9.43;66.82
64853;BME280;56050;55.558;-4.644;2022-11-23T09:35:31;97700.88;;;9.47;66.76
64853;BME280;56050;55.558;-4.644;2022-11-23T09:37:57;97698.31;;;9.53;66.89
64853;BME280;56050;55.558;-4.644;2022-11-23T09:40:24;97712.31;;;9.57;66.88
64853;BME280;56050;55.558;-4.644;2022-11-23T09:43:30;97713.66;;;9.61;66.89
64853;BME280;56050;55.558;-4.644;2022-11-23T09:46:12;97699.63;;;9.66;66.91
64853;BME280;56050;55.558;-4.644;2022-11-23T09:48:57;97703.03;;;9.67;67.31
64853;BME280;56050;55.558;-4.644;2022-11-23T09:51:27;97702.59;;;9.68;67.36
64853;BME280;56050;55.558;-4.644;2022-11-23T09:53:55;97680.34;;;9.68;67.52
64853;BME280;56050;55.558;-4.644;2022-11-23T09:56:28;97717.53;;;9.69;67.68
64853;BME280;56050;55.558;-4.644;2022-11-23T09:58:57;97728.56;;;9.71;67.69
64853;BME280;56050;55.558;-4.644;2022-11-23T10:01:23;97724.50;;;9.76;67.68
64853;BME280;56050;55.558;-4.644;2022-11-23T10:03:52;97724.63;;;9.81;67.61
64853;BME280;56050;55.558;-4.644;2022-11-23T10:06:27;97727.75;;;9.89;67.69
64853;BME280;56050;55.558;-4.644;2022-11-23T10:15:00;97754.22;;;10.23;68.06
64853;BME280;56050;55.558;-4.644;2022-11-23T10:20:17;97776.69;;;10.44;68.09
64853;BME280;56050;55.558;-4.644;2022-11-23T10:22:56;97772.50;;;10.52;68.00
64853;BME280;56050;55.558;-4.644;2022-11-23T10:25:23;97777.53;;;10.59;68.13
64853;BME280;56050;55.558;-4.644;2022-11-23T10:27:51;97790.34;;;10.64;68.05
64853;BME280;56050;55.558;-4.644;2022-11-23T10:30:19;97793.31;;;10.66;68.05
64853;BME280;56050;55.558;-4.644;2022-11-23T10:32:59;97798.53;;;10.70;68.01
64853;BME280;56050;55.558;-4.644;2022-11-23T10:35:32;97796.44;;;10.74;67.92
64853;BME280;56050;55.558;-4.644;2022-11-23T10:38:09;97797.47;;;10.76;68.01
64853;BME280;56050;55.558;-4.644;2022-11-23T10:40:38;97808.78;;;10.80;67.84
64853;BME280;56050;55.558;-4.644;2022-11-23T10:43:21;97802.69;;;10.80;67.67
64853;BME280;56050;55.558;-4.644;2022-11-23T10:45:49;97808.34;;;10.82;67.71
64853;BME280;56050;55.558;-4.644;2022-11-23T10:48:34;97827.19;;;10.82;67.84
64853;BME280;56050;55.558;-4.644;2022-11-23T10:53:51;97817.28;;;10.88;67.67
64853;BME280;56050;55.558;-4.644;2022-11-23T10:56:18;97819.03;;;10.91;67.48
64853;BME280;56050;55.558;-4.644;2022-11-23T10:58:45;97827.25;;;10.96;67.54
64853;BME280;56050;55.558;-4.644;2022-11-23T11:01:16;97829.31;;;11.01;67.51
64853;BME280;56050;55.558;-4.644;2022-11-23T11:03:43;97839.75;;;11.08;67.17
64853;BME280;56050;55.558;-4.644;2022-11-23T11:06:08;97834.47;;;11.14;66.94
64853;BME280;56050;55.558;-4.644;2022-11-23T11:08:53;97847.03;;;11.17;66.80
64853;BME280;56050;55.558;-4.644;2022-11-23T11:13:48;97848.00;;;11.29;66.57
64853;BME280;56050;55.558;-4.644;2022-11-23T11:16:31;97841.59;;;11.26;66.60
64853;BME280;56050;55.558;-4.644;2022-11-23T11:18:59;97839.63;;;11.27;66.76
64853;BME280;56050;55.558;-4.644;2022-11-23T11:21:34;97854.13;;;11.29;66.83
64853;BME280;56050;55.558;-4.644;2022-11-23T11:24:04;97860.56;;;11.32;67.02
64853;BME280;56050;55.558;-4.644;2022-11-23T11:26:34;97867.53;;;11.38;66.75
64853;BME280;56050;55.558;-4.644;2022-11-23T11:29:02;97866.59;;;11.41;66.53
64853;BME280;56050;55.558;-4.644;2022-11-23T11:34:19;97876.47;;;11.44;66.34
64853;BME280;56050;55.558;-4.644;2022-11-23T11:39:34;97885.13;;;11.48;66.44
64853;BME280;56050;55.558;-4.644;2022-11-23T11:42:06;97879.09;;;11.53;66.39
64853;BME280;56050;55.558;-4.644;2022-11-23T11:44:35;97891.47;;;11.60;66.40
64853;BME280;56050;55.558;-4.644;2022-11-23T11:47:09;97901.16;;;11.66;66.31
64853;BME280;56050;55.558;-4.644;2022-11-23T11:49:42;97899.63;;;11.74;66.40
64853;BME280;56050;55.558;-4.644;2022-11-23T11:52:12;97903.34;;;11.77;65.85
64853;BME280;56050;55.558;-4.644;2022-11-23T11:54:47;97903.06;;;11.75;65.86
64853;BME280;56050;55.558;-4.644;2022-11-23T11:57:34;97909.66;;;11.74;65.94
64853;BME280;56050;55.558;-4.644;2022-11-23T12:00:04;97910.25;;;11.78;65.78
64853;BME280;56050;55.558;-4.644;2022-11-23T12:02:39;97904.69;;;11.82;65.91
64853;BME280;56050;55.558;-4.644;2022-11-23T12:07:48;97910.72;;;11.91;65.70
64853;BME280;56050;55.558;-4.644;2022-11-23T12:10:35;97919.50;;;12.01;65.78
64853;BME280;56050;55.558;-4.644;2022-11-23T12:13:03;97922.56;;;12.08;65.44
64853;BME280;56050;55.558;-4.644;2022-11-23T12:15:37;97923.00;;;12.07;65.20
64853;BME280;56050;55.558;-4.644;2022-11-23T12:31:44;97949.88;;;11.87;65.21
64853;BME280;56050;55.558;-4.644;2022-11-23T12:42:09;97962.47;;;11.90;65.30
64853;BME280;56050;55.558;-4.644;2022-11-23T12:51:59;97970.00;;;12.00;64.94
64853;BME280;56050;55.558;-4.644;2022-11-23T12:57:03;97965.75;;;12.08;64.88
64853;BME280;56050;55.558;-4.644;2022-11-23T12:59:45;97961.84;;;12.09;64.73
64853;BME280;56050;55.558;-4.644;2022-11-23T13:05:10;97968.81;;;12.16;64.66
64853;BME280;56050;55.558;-4.644;2022-11-23T13:07:51;97970.03;;;12.15;64.75
64853;BME280;56050;55.558;-4.644;2022-11-23T13:19:32;97982.19;;;11.96;64.75
64853;BME280;56050;55.558;-4.644;2022-11-23T13:21:59;97986.53;;;11.93;64.61
64853;BME280;56050;55.558;-4.644;2022-11-23T13:24:31;97995.56;;;11.90;64.77
64853;BME280;56050;55.558;-4.644;2022-11-23T13:28:03;97994.53;;;11.88;64.76
64853;BME280;56050;55.558;-4.644;2022-11-23T13:30:09;97997.41;;;11.84;64.58
64853;BME280;56050;55.558;-4.644;2022-11-23T13:32:53;98009.13;;;11.81;64.75
64853;BME280;56050;55.558;-4.644;2022-11-23T13:40:27;98013.06;;;11.71;64.65
64853;BME280;56050;55.558;-4.644;2022-11-23T13:42:56;98010.09;;;11.69;64.58
64853;BME280;56050;55.558;-4.644;2022-11-23T13:45:28;98019.38;;;11.68;64.61
64853;BME280;56050;55.558;-4.644;2022-11-23T13:50:36;98019.06;;;11.66;64.71
64853;BME280;56050;55.558;-4.644;2022-11-23T13:53:04;98019.81;;;11.66;64.72
64853;BME280;56050;55.558;-4.644;2022-11-23T13:55:43;98019.06;;;11.66;64.66
64853;BME280;56050;55.558;-4.644;2022-11-23T14:00:56;98012.63;;;11.63;64.57
64853;BME280;56050;55.558;-4.644;2022-11-23T14:12:35;98018.66;;;11.58;64.45
64853;BME280;56050;55.558;-4.644;2022-11-23T14:15:11;98026.75;;;11.58;64.36
64853;BME280;56050;55.558;-4.644;2022-11-23T14:20:48;98030.66;;;11.57;64.53
64853;BME280;56050;55.558;-4.644;2022-11-23T14:37:03;98060.72;;;11.65;64.31
64853;BME280;56050;55.558;-4.644;2022-11-23T14:39:35;98067.91;;;11.68;64.25
64853;BME280;56050;55.558;-4.644;2022-11-23T14:42:20;98065.22;;;11.68;64.17
64853;BME280;56050;55.558;-4.644;2022-11-23T14:44:47;98056.69;;;11.69;64.16
64853;BME280;56050;55.558;-4.644;2022-11-23T14:47:27;98056.38;;;11.67;64.12
64853;BME280;56050;55.558;-4.644;2022-11-23T14:49:54;98050.97;;;11.67;64.03